Alvarado, Minnesota
Current Conditions -  °F | °C
As of 1:53 PM on Thursday 30 Oct 2014 (Local Time) from KGFK Reporting Station
Overcast Overcast  
Wind Chill: 25°   Ceiling: 2800
Heat Index: 36°   Visibility: 10mi
Dew Point: 25°   Wind: 21mph
Humidity: 64%   Direction: 340°NNW
Pressure: 30.34"   Gusts: 31mph
Location:  48.19°N, 97°W
Report Text: KGFK 301853Z 34018G27KT 10SM OVC028 02/M04 A3034 RMK AO2 PK WND 35030/1820 SLP285 T00221039
Loading
Personal Weather Stations






























Interactive Weather Map
Tropical Storm Tracking
New forecast layout! Learn more

10-Day Weather Forecast

Advertisements
Track Severe Weather on mobile